createdAt,value
2023-03-26T00:00:24.236Z,80.38
2023-03-26T00:00:57.799Z,80.60
2023-03-26T00:01:34.030Z,80.43
2023-03-26T00:02:09.066Z,80.33
2023-03-26T00:02:41.433Z,80.30
2023-03-26T00:03:17.233Z,80.39
2023-03-26T00:03:54.550Z,80.31
2023-03-26T00:04:28.221Z,79.81
2023-03-26T00:05:00.558Z,80.04
2023-03-26T00:05:35.594Z,80.02
2023-03-26T00:06:10.775Z,79.91
2023-03-26T00:06:43.029Z,80.12
2023-03-26T00:07:18.012Z,80.04
2023-03-26T00:07:51.843Z,79.88
2023-03-26T00:08:24.024Z,80.02
2023-03-26T00:09:00.169Z,80.15
2023-03-26T00:09:32.372Z,79.98
2023-03-26T00:10:05.166Z,80.15
2023-03-26T00:10:40.759Z,79.79
2023-03-26T00:11:15.901Z,79.91
2023-03-26T00:11:50.746Z,79.75
2023-03-26T00:12:22.920Z,79.87
2023-03-26T00:12:55.108Z,79.76
2023-03-26T00:13:31.014Z,79.88
2023-03-26T00:14:04.040Z,80.04
2023-03-26T00:14:36.364Z,79.99
2023-03-26T00:15:12.535Z,80.07
2023-03-26T00:15:44.840Z,80.16
2023-03-26T00:16:19.832Z,79.91
2023-03-26T00:16:54.749Z,79.72
2023-03-26T00:17:27.021Z,79.99
2023-03-26T00:18:00.893Z,80.02
2023-03-26T00:18:35.787Z,79.49
2023-03-26T00:19:10.892Z,79.55
2023-03-26T00:19:43.393Z,79.69
2023-03-26T00:20:15.725Z,79.49
2023-03-26T00:20:50.794Z,79.54
2023-03-26T00:21:28.048Z,79.97
2023-03-26T00:22:03.814Z,79.58
2023-03-26T00:22:36.047Z,79.90
2023-03-26T00:23:09.059Z,79.57
2023-03-26T00:23:44.096Z,79.49
2023-03-26T00:24:16.412Z,79.84
2023-03-26T00:24:51.006Z,79.64
2023-03-26T00:25:26.569Z,79.86
2023-03-26T00:25:59.009Z,79.78
2023-03-26T00:26:32.173Z,79.70
2023-03-26T00:27:08.992Z,79.56
2023-03-26T00:27:42.013Z,79.71
2023-03-26T00:28:17.295Z,80.02
2023-03-26T00:28:52.213Z,79.83
2023-03-26T00:29:24.898Z,79.78
2023-03-26T00:29:57.208Z,80.03
2023-03-26T00:30:32.069Z,79.92
2023-03-26T00:31:06.176Z,80.11
2023-03-26T00:31:40.056Z,79.64
2023-03-26T00:32:14.821Z,80.04
2023-03-26T00:32:53.368Z,79.62
2023-03-26T00:33:26.502Z,79.95
2023-03-26T00:34:05.798Z,79.75
2023-03-26T00:34:38.129Z,79.76
2023-03-26T00:35:11.357Z,80.04
2023-03-26T00:35:47.781Z,79.47
2023-03-26T00:36:20.822Z,79.45
2023-03-26T00:36:56.124Z,79.94
2023-03-26T00:37:28.389Z,79.64
2023-03-26T00:38:01.550Z,79.54
2023-03-26T00:38:39.096Z,79.53
2023-03-26T00:39:11.596Z,79.40
2023-03-26T00:39:44.860Z,79.89
2023-03-26T00:40:19.908Z,79.88
2023-03-26T00:40:58.482Z,79.41
2023-03-26T00:41:31.299Z,79.53
2023-03-26T00:42:07.458Z,79.81
2023-03-26T00:42:40.071Z,79.77
2023-03-26T00:43:19.161Z,79.30
2023-03-26T00:43:56.813Z,79.56
2023-03-26T00:44:29.063Z,79.43
2023-03-26T00:45:01.410Z,79.67
2023-03-26T00:45:33.618Z,79.69
2023-03-26T00:46:08.704Z,79.53
2023-03-26T00:46:41.097Z,79.56
2023-03-26T00:47:13.550Z,79.76
2023-03-26T00:47:48.436Z,79.85
2023-03-26T00:48:31.362Z,80.04
2023-03-26T00:49:14.963Z,79.88
2023-03-26T00:49:49.587Z,79.82
2023-03-26T00:50:21.828Z,80.00
2023-03-26T00:50:54.118Z,79.61
2023-03-26T00:51:30.020Z,79.96
2023-03-26T00:52:03.384Z,79.81
2023-03-26T00:52:36.393Z,79.93
2023-03-26T00:53:13.963Z,79.57
2023-03-26T00:53:48.544Z,79.91
2023-03-26T00:54:23.315Z,79.59
2023-03-26T00:54:57.084Z,79.81
2023-03-26T00:55:29.324Z,80.09
2023-03-26T00:56:02.040Z,79.75
2023-03-26T00:56:37.182Z,79.68
2023-03-26T00:57:10.697Z,79.78
2023-03-26T00:57:46.138Z,79.66
2023-03-26T00:58:22.513Z,80.10
2023-03-26T00:58:54.965Z,80.16
2023-03-26T00:59:30.624Z,79.92
2023-03-26T01:00:16.174Z,80.18
2023-03-26T01:00:53.215Z,80.13
2023-03-26T01:01:30.764Z,80.25
2023-03-26T01:02:04.548Z,80.40
2023-03-26T01:02:37.389Z,80.19
2023-03-26T01:03:27.800Z,80.39
2023-03-26T01:04:30.968Z,80.21
2023-03-26T01:05:36.420Z,80.17
2023-03-26T01:06:12.954Z,80.10
2023-03-26T01:06:47.882Z,80.09
2023-03-26T01:07:21.928Z,80.14
2023-03-26T01:07:54.639Z,80.58
2023-03-26T01:08:33.564Z,80.30
2023-03-26T01:09:14.670Z,80.78
2023-03-26T01:09:53.051Z,80.45
2023-03-26T01:10:25.699Z,80.86
2023-03-26T01:11:03.294Z,80.88
2023-03-26T01:11:36.086Z,80.46
2023-03-26T01:12:17.303Z,80.53
2023-03-26T01:12:49.731Z,80.52
2023-03-26T01:13:24.477Z,80.78
2023-03-26T01:14:02.927Z,80.43
2023-03-26T01:14:35.446Z,80.58
2023-03-26T01:15:10.017Z,80.59
2023-03-26T01:15:45.017Z,80.88
2023-03-26T01:16:23.534Z,80.44
2023-03-26T01:17:00.250Z,80.63
2023-03-26T01:17:34.487Z,80.81
2023-03-26T01:18:09.999Z,81.03
2023-03-26T01:18:43.271Z,80.74
2023-03-26T01:19:26.086Z,80.72
2023-03-26T01:20:11.165Z,80.78
2023-03-26T01:20:46.988Z,80.70
2023-03-26T01:21:28.782Z,80.67
2023-03-26T01:22:01.117Z,80.87
2023-03-26T01:22:39.629Z,80.63
2023-03-26T01:23:11.989Z,81.04
2023-03-26T01:23:49.150Z,80.99
2023-03-26T01:24:26.633Z,80.79
2023-03-26T01:24:58.854Z,80.91
2023-03-26T01:25:37.394Z,80.79
2023-03-26T01:26:19.155Z,81.05
2023-03-26T01:27:15.152Z,81.01
2023-03-26T01:27:52.527Z,80.97
2023-03-26T01:28:27.944Z,80.74
2023-03-26T01:29:08.475Z,80.88
2023-03-26T01:29:45.431Z,81.12
2023-03-26T01:30:27.561Z,80.73
2023-03-26T01:31:06.962Z,80.85
2023-03-26T01:31:48.780Z,80.78
2023-03-26T01:32:34.686Z,81.02
2023-03-26T01:33:16.477Z,81.22
2023-03-26T01:33:58.341Z,81.08
2023-03-26T01:34:42.239Z,81.33
2023-03-26T01:35:24.998Z,81.47
2023-03-26T01:36:01.180Z,81.19
2023-03-26T01:36:43.006Z,81.08
2023-03-26T01:37:22.335Z,81.16
2023-03-26T01:38:18.709Z,81.14
2023-03-26T01:39:00.639Z,81.26
2023-03-26T01:39:49.371Z,81.82
2023-03-26T01:40:27.217Z,81.98
2023-03-26T01:41:05.010Z,81.87
2023-03-26T01:41:44.943Z,82.08
2023-03-26T01:42:27.964Z,82.28
2023-03-26T01:43:07.254Z,83.14
2023-03-26T01:43:49.871Z,83.21
2023-03-26T01:44:31.369Z,82.94
2023-03-26T01:45:12.839Z,82.90
2023-03-26T01:45:48.137Z,82.72
2023-03-26T01:46:26.734Z,82.74
2023-03-26T01:47:00.356Z,82.96
2023-03-26T01:47:34.221Z,83.35
2023-03-26T01:48:11.484Z,83.02
2023-03-26T01:48:47.178Z,83.00
2023-03-26T01:49:20.228Z,83.21
2023-03-26T01:49:52.478Z,83.37
2023-03-26T01:50:27.413Z,83.48
2023-03-26T01:50:59.770Z,83.29
2023-03-26T01:51:33.977Z,83.56
2023-03-26T01:52:15.684Z,83.57
2023-03-26T01:52:48.042Z,83.41
2023-03-26T01:53:20.474Z,83.07
2023-03-26T01:53:56.590Z,83.44
2023-03-26T01:54:31.843Z,83.58
2023-03-26T01:55:11.895Z,83.86
2023-03-26T01:55:57.912Z,83.94
2023-03-26T01:56:40.154Z,83.78
2023-03-26T01:57:23.262Z,83.75
2023-03-26T01:58:08.863Z,83.08
2023-03-26T01:58:55.014Z,83.29
2023-03-26T01:59:45.680Z,83.72
2023-03-26T02:00:25.953Z,83.51
2023-03-26T02:01:06.553Z,83.84
2023-03-26T02:01:47.970Z,85.16
2023-03-26T02:02:26.326Z,84.75
2023-03-26T02:03:06.104Z,84.92
2023-03-26T02:03:46.130Z,85.16
2023-03-26T02:04:25.212Z,85.32
2023-03-26T02:05:05.080Z,85.60
2023-03-26T02:05:44.772Z,86.41
2023-03-26T02:06:24.052Z,87.11
2023-03-26T02:07:05.917Z,87.58
2023-03-26T02:07:48.052Z,87.52
2023-03-26T02:08:24.691Z,87.92
2023-03-26T02:09:03.054Z,88.46
2023-03-26T02:09:46.020Z,88.45
2023-03-26T02:10:26.358Z,89.02
2023-03-26T02:11:02.538Z,89.94
2023-03-26T02:11:37.267Z,89.75
2023-03-26T02:12:10.421Z,90.46
2023-03-26T02:12:46.551Z,90.57
2023-03-26T02:13:19.669Z,90.32
2023-03-26T02:13:52.534Z,92.07
2023-03-26T02:14:28.352Z,91.92
2023-03-26T02:15:02.002Z,91.46
2023-03-26T02:15:34.406Z,91.98
2023-03-26T02:16:12.525Z,92.26
2023-03-26T02:16:47.204Z,93.38
2023-03-26T02:17:24.513Z,93.29
2023-03-26T02:18:00.070Z,93.76
2023-03-26T02:18:37.366Z,94.51
2023-03-26T02:19:21.975Z,94.63
2023-03-26T02:19:57.427Z,94.77
2023-03-26T02:20:30.408Z,95.46
2023-03-26T02:21:05.549Z,95.42
2023-03-26T02:21:40.499Z,95.73
2023-03-26T02:22:15.844Z,95.94
2023-03-26T02:22:49.929Z,95.82
2023-03-26T02:23:29.961Z,95.37
2023-03-26T02:24:03.461Z,95.41
2023-03-26T02:24:38.739Z,95.64
2023-03-26T02:25:15.817Z,95.75
2023-03-26T02:25:51.224Z,95.52
2023-03-26T02:26:24.708Z,95.25
2023-03-26T02:27:08.091Z,94.80
2023-03-26T02:27:41.039Z,94.91
2023-03-26T02:28:17.241Z,94.75
2023-03-26T02:28:52.272Z,94.49
2023-03-26T02:29:26.735Z,94.62
2023-03-26T02:29:59.659Z,94.03
2023-03-26T02:30:34.536Z,93.82
2023-03-26T02:31:10.020Z,94.21
2023-03-26T02:31:43.604Z,94.29
2023-03-26T02:32:20.337Z,94.20
2023-03-26T02:32:54.415Z,94.67
2023-03-26T02:33:28.566Z,93.97
2023-03-26T02:34:03.532Z,94.17
2023-03-26T02:34:39.210Z,95.07
2023-03-26T02:35:12.480Z,95.31
2023-03-26T02:35:47.679Z,94.51
2023-03-26T02:36:24.862Z,94.10
2023-03-26T02:37:01.035Z,94.85
2023-03-26T02:37:34.201Z,94.80
2023-03-26T02:38:15.457Z,94.96
2023-03-26T02:38:50.811Z,94.86
2023-03-26T02:39:23.551Z,95.02
2023-03-26T02:40:11.951Z,95.11
2023-03-26T02:40:49.786Z,95.65
2023-03-26T02:41:25.394Z,95.95
2023-03-26T02:42:20.038Z,95.97
2023-03-26T02:42:53.893Z,95.92
2023-03-26T02:43:30.626Z,96.06
2023-03-26T02:44:02.965Z,96.71
2023-03-26T02:44:58.060Z,96.45
2023-03-26T02:45:50.976Z,96.73
2023-03-26T02:46:45.853Z,97.12
2023-03-26T02:47:38.040Z,97.31
2023-03-26T02:48:34.874Z,97.97
2023-03-26T02:49:17.700Z,97.65
2023-03-26T02:49:49.952Z,97.65
2023-03-26T02:50:32.768Z,98.01
2023-03-26T02:51:25.442Z,98.31
2023-03-26T02:52:08.247Z,98.27
2023-03-26T02:52:43.233Z,98.09
2023-03-26T02:53:15.547Z,98.08
2023-03-26T02:53:54.961Z,98.17
2023-03-26T02:54:46.223Z,98.33
2023-03-26T02:55:31.528Z,98.31
2023-03-26T02:56:07.784Z,98.38
2023-03-26T02:56:50.166Z,98.08
2023-03-26T02:57:58.171Z,97.57
2023-03-26T02:58:37.055Z,97.57
2023-03-26T02:59:09.293Z,97.14
2023-03-26T02:59:46.579Z,97.29
2023-03-26T03:00:42.011Z,97.21
2023-03-26T03:01:35.337Z,96.37
2023-03-26T03:02:07.872Z,95.63
2023-03-26T03:02:44.527Z,95.67
2023-03-26T03:03:36.566Z,95.61
2023-03-26T03:04:28.176Z,95.26
2023-03-26T03:05:06.007Z,94.95
2023-03-26T03:05:43.325Z,94.71
2023-03-26T03:06:21.358Z,94.37
2023-03-26T03:07:00.320Z,94.18
2023-03-26T03:07:32.778Z,93.53
2023-03-26T03:08:06.755Z,92.87
2023-03-26T03:08:46.318Z,92.75
2023-03-26T03:09:36.316Z,92.65
2023-03-26T03:10:32.921Z,92.48
2023-03-26T03:11:17.821Z,92.34
2023-03-26T03:11:56.751Z,92.28
2023-03-26T03:12:31.575Z,92.13
2023-03-26T03:13:06.118Z,92.41
2023-03-26T03:13:38.453Z,92.33
2023-03-26T03:14:13.477Z,92.28
2023-03-26T03:14:45.785Z,90.80
2023-03-26T03:15:18.266Z,90.54
2023-03-26T03:15:54.126Z,90.81
2023-03-26T03:16:26.848Z,90.81
2023-03-26T03:16:59.659Z,90.64
2023-03-26T03:17:34.634Z,90.79
2023-03-26T03:18:07.344Z,89.98
2023-03-26T03:18:39.708Z,90.02
2023-03-26T03:19:15.351Z,90.22
2023-03-26T03:19:47.802Z,88.98
2023-03-26T03:20:22.176Z,89.06
2023-03-26T03:20:57.259Z,88.65
2023-03-26T03:21:30.106Z,88.74
2023-03-26T03:22:04.888Z,87.97
2023-03-26T03:22:38.773Z,88.64
2023-03-26T03:23:11.173Z,88.76
2023-03-26T03:23:43.457Z,88.71
2023-03-26T03:24:21.323Z,88.02
2023-03-26T03:24:57.870Z,87.51
2023-03-26T03:25:30.363Z,88.10
2023-03-26T03:26:06.963Z,88.03
2023-03-26T03:26:41.458Z,88.01
2023-03-26T03:27:41.733Z,87.77
2023-03-26T03:28:18.442Z,87.54
2023-03-26T03:28:53.664Z,87.77
2023-03-26T03:29:26.021Z,87.81
2023-03-26T03:29:59.304Z,87.73
2023-03-26T03:30:54.468Z,87.87
2023-03-26T03:31:33.052Z,87.50
2023-03-26T03:32:09.195Z,87.75
2023-03-26T03:32:50.166Z,87.36
2023-03-26T03:33:26.575Z,86.75
2023-03-26T03:33:58.942Z,87.07
2023-03-26T03:34:34.614Z,86.99
2023-03-26T03:35:07.857Z,87.07
2023-03-26T03:35:41.762Z,87.18
2023-03-26T03:36:20.956Z,86.99
2023-03-26T03:37:02.561Z,86.94
2023-03-26T03:37:48.250Z,87.26
2023-03-26T03:38:20.483Z,87.17
2023-03-26T03:38:55.532Z,86.32
2023-03-26T03:39:31.832Z,86.35
2023-03-26T03:40:07.892Z,85.40
2023-03-26T03:40:41.195Z,85.13
2023-03-26T03:41:13.446Z,85.27
2023-03-26T03:41:52.124Z,85.18
2023-03-26T03:42:24.724Z,84.92
2023-03-26T03:43:05.095Z,84.89
2023-03-26T03:43:49.164Z,84.69
2023-03-26T03:44:26.679Z,84.65
2023-03-26T03:44:59.533Z,85.25
2023-03-26T03:46:05.883Z,85.03
2023-03-26T03:46:56.206Z,85.17
2023-03-26T03:47:31.319Z,85.22
2023-03-26T03:48:04.401Z,84.92
2023-03-26T03:48:48.425Z,84.93
2023-03-26T03:49:24.153Z,85.20
2023-03-26T03:50:00.269Z,85.30
2023-03-26T03:50:35.467Z,85.15
2023-03-26T03:51:26.867Z,85.09
2023-03-26T03:52:04.315Z,85.13
2023-03-26T03:52:43.382Z,85.07
2023-03-26T03:53:26.209Z,85.49
2023-03-26T03:54:00.150Z,85.67
2023-03-26T03:54:52.723Z,85.68
2023-03-26T03:55:43.333Z,85.40
2023-03-26T03:56:19.284Z,85.31
2023-03-26T03:57:27.292Z,85.22
2023-03-26T03:58:09.496Z,84.76
2023-03-26T03:58:42.482Z,84.82
2023-03-26T03:59:22.248Z,84.72
2023-03-26T03:59:58.360Z,85.19
2023-03-26T04:00:33.070Z,85.11
2023-03-26T04:01:30.941Z,85.04
2023-03-26T04:02:09.445Z,85.26
2023-03-26T04:02:48.109Z,84.73
2023-03-26T04:03:34.199Z,85.12
2023-03-26T04:04:09.935Z,84.91
2023-03-26T04:05:00.452Z,85.03
2023-03-26T04:05:33.413Z,85.38
2023-03-26T04:06:07.513Z,84.96
2023-03-26T04:06:42.725Z,85.03
2023-03-26T04:07:16.856Z,84.73
2023-03-26T04:08:07.914Z,84.77
2023-03-26T04:08:51.492Z,84.85
2023-03-26T04:09:23.928Z,84.74
2023-03-26T04:09:57.660Z,84.62
2023-03-26T04:10:35.735Z,84.58
2023-03-26T04:11:16.914Z,84.70
2023-03-26T04:12:18.635Z,84.55
2023-03-26T04:13:04.804Z,84.67
2023-03-26T04:14:02.548Z,84.31
2023-03-26T04:15:02.064Z,84.42
2023-03-26T04:15:37.488Z,84.89
2023-03-26T04:16:10.607Z,84.34
2023-03-26T04:16:43.234Z,84.03
2023-03-26T04:17:18.176Z,84.06
2023-03-26T04:17:52.369Z,84.06
2023-03-26T04:18:26.568Z,84.20
2023-03-26T04:19:04.148Z,83.91
2023-03-26T04:19:37.607Z,84.04
2023-03-26T04:20:14.972Z,84.07
2023-03-26T04:20:51.970Z,84.06
2023-03-26T04:21:30.675Z,84.23
2023-03-26T04:22:03.377Z,84.17
2023-03-26T04:22:43.840Z,83.57
2023-03-26T04:23:19.143Z,83.94
2023-03-26T04:23:57.644Z,83.44
2023-03-26T04:24:55.423Z,83.66
2023-03-26T04:25:43.989Z,83.81
2023-03-26T04:26:26.120Z,83.88
2023-03-26T04:27:13.438Z,83.50
2023-03-26T04:27:47.990Z,83.74
2023-03-26T04:28:47.090Z,83.63
2023-03-26T04:29:32.988Z,83.59
2023-03-26T04:30:11.149Z,83.12
2023-03-26T04:30:45.178Z,83.52
2023-03-26T04:32:06.697Z,83.63
2023-03-26T04:32:40.628Z,83.93
2023-03-26T04:33:15.730Z,83.53
2023-03-26T04:33:54.475Z,83.83
2023-03-26T04:34:27.883Z,83.50
2023-03-26T04:35:26.479Z,83.47
2023-03-26T04:36:04.100Z,83.68
2023-03-26T04:36:42.630Z,83.68
2023-03-26T04:37:26.790Z,83.51
2023-03-26T04:38:25.358Z,83.61
2023-03-26T04:39:05.460Z,83.27
2023-03-26T04:40:10.664Z,83.89
2023-03-26T04:40:50.014Z,83.46
2023-03-26T04:41:39.259Z,83.54
2023-03-26T04:42:20.190Z,83.35
2023-03-26T04:43:28.444Z,83.34
2023-03-26T04:44:38.994Z,83.46
2023-03-26T04:45:24.489Z,83.61
2023-03-26T04:46:03.656Z,83.52
2023-03-26T04:46:43.992Z,83.47
2023-03-26T04:47:35.253Z,83.12
2023-03-26T04:48:08.821Z,82.74
2023-03-26T04:48:43.958Z,82.58
2023-03-26T04:49:19.451Z,82.27
2023-03-26T04:49:52.209Z,81.97
2023-03-26T04:50:34.681Z,82.14
2023-03-26T04:51:10.281Z,81.99
2023-03-26T04:51:46.975Z,82.27
2023-03-26T04:52:43.960Z,82.63
2023-03-26T04:53:53.364Z,82.43
2023-03-26T04:54:41.189Z,82.26
2023-03-26T04:55:24.644Z,81.85
2023-03-26T04:56:20.715Z,82.17
2023-03-26T04:57:34.314Z,82.09
2023-03-26T04:58:37.820Z,82.30
2023-03-26T04:59:18.660Z,82.17
2023-03-26T04:59:53.472Z,82.27
2023-03-26T05:00:28.724Z,81.93
2023-03-26T05:01:10.204Z,82.21
2023-03-26T05:01:46.158Z,81.82
2023-03-26T05:02:23.219Z,81.58
2023-03-26T05:02:59.657Z,81.82
2023-03-26T05:03:32.775Z,81.63
2023-03-26T05:04:13.224Z,81.87
2023-03-26T05:04:46.283Z,82.00
2023-03-26T05:05:19.176Z,81.77
2023-03-26T05:05:54.264Z,81.77
2023-03-26T05:06:28.797Z,81.91
2023-03-26T05:07:01.116Z,81.09
2023-03-26T05:07:43.925Z,81.63
2023-03-26T05:08:19.158Z,81.28
2023-03-26T05:08:51.521Z,81.39
2023-03-26T05:09:44.560Z,81.49
2023-03-26T05:10:28.432Z,81.19
2023-03-26T05:11:13.134Z,81.24
2023-03-26T05:11:48.632Z,81.06
2023-03-26T05:12:21.784Z,81.29
2023-03-26T05:13:22.724Z,81.57
2023-03-26T05:14:01.310Z,81.25
2023-03-26T05:14:33.764Z,80.36
2023-03-26T05:15:14.426Z,80.25
2023-03-26T05:16:00.662Z,80.45
2023-03-26T05:16:45.009Z,80.28
2023-03-26T05:17:19.122Z,80.10
2023-03-26T05:17:53.337Z,80.57
2023-03-26T05:18:42.979Z,80.11
2023-03-26T05:19:15.559Z,80.08
2023-03-26T05:19:47.985Z,80.03
2023-03-26T05:20:24.616Z,80.14
2023-03-26T05:20:57.709Z,79.95
2023-03-26T05:21:30.971Z,80.43
2023-03-26T05:22:06.092Z,80.14
2023-03-26T05:22:43.038Z,80.21
2023-03-26T05:23:21.743Z,80.39
2023-03-26T05:24:02.294Z,80.00
2023-03-26T05:24:34.492Z,79.82
2023-03-26T05:25:08.514Z,80.00
2023-03-26T05:25:43.701Z,79.73
2023-03-26T05:26:20.934Z,80.04
2023-03-26T05:26:53.639Z,79.76
2023-03-26T05:27:28.474Z,79.67
2023-03-26T05:28:03.361Z,80.11
2023-03-26T05:28:50.460Z,80.10
2023-03-26T05:29:34.219Z,79.88
2023-03-26T05:30:13.412Z,79.68
2023-03-26T05:30:49.528Z,79.88
2023-03-26T05:31:24.775Z,79.74
2023-03-26T05:32:00.593Z,79.61
2023-03-26T05:32:35.008Z,79.68
2023-03-26T05:33:09.982Z,79.59
2023-03-26T05:33:50.775Z,79.21
2023-03-26T05:34:26.510Z,79.52
2023-03-26T05:35:01.906Z,79.14
2023-03-26T05:35:43.556Z,79.14
2023-03-26T05:36:17.485Z,78.16
2023-03-26T05:36:59.231Z,78.11
2023-03-26T05:37:51.608Z,78.84
2023-03-26T05:38:43.902Z,78.05
2023-03-26T05:39:22.826Z,78.40
2023-03-26T05:40:18.412Z,78.18
2023-03-26T05:41:16.824Z,77.58
2023-03-26T05:41:50.422Z,77.88
2023-03-26T05:42:24.305Z,77.95
2023-03-26T05:43:22.512Z,78.21
2023-03-26T05:44:26.697Z,77.49
2023-03-26T05:45:01.539Z,77.48
2023-03-26T05:45:48.046Z,77.52
2023-03-26T05:46:54.708Z,76.39
2023-03-26T05:47:45.103Z,76.34
2023-03-26T05:48:21.068Z,77.05
2023-03-26T05:48:54.189Z,77.17
2023-03-26T05:49:44.933Z,76.89
2023-03-26T05:50:17.292Z,76.57
2023-03-26T05:50:50.125Z,76.80
2023-03-26T05:51:26.288Z,76.76
2023-03-26T05:52:15.415Z,77.00
2023-03-26T05:53:24.526Z,76.55
2023-03-26T05:54:18.275Z,76.59
2023-03-26T05:55:13.603Z,77.02
2023-03-26T05:56:05.138Z,76.88
2023-03-26T05:57:02.722Z,76.76
2023-03-26T05:58:10.665Z,76.69
2023-03-26T05:59:04.017Z,76.64
2023-03-26T06:00:15.389Z,76.84
2023-03-26T06:00:59.555Z,76.41
2023-03-26T06:01:45.083Z,76.32
2023-03-26T06:02:35.310Z,76.67
2023-03-26T06:03:35.199Z,76.98
2023-03-26T06:04:24.570Z,76.69
2023-03-26T06:05:23.196Z,76.93
2023-03-26T06:06:15.800Z,76.99
2023-03-26T06:06:54.251Z,76.95
2023-03-26T06:07:29.925Z,77.00
2023-03-26T06:08:22.275Z,77.20
2023-03-26T06:09:00.932Z,77.01
2023-03-26T06:09:34.711Z,77.13
2023-03-26T06:10:08.194Z,77.66
2023-03-26T06:10:44.138Z,77.45
2023-03-26T06:11:18.119Z,77.53
2023-03-26T06:11:50.480Z,78.04
2023-03-26T06:12:26.188Z,77.97
2023-03-26T06:12:58.476Z,78.03
2023-03-26T06:13:30.849Z,78.28
2023-03-26T06:14:06.035Z,78.18
2023-03-26T06:14:39.586Z,78.42
2023-03-26T06:15:21.164Z,78.10
2023-03-26T06:16:02.581Z,78.46
2023-03-26T06:16:43.475Z,78.56
2023-03-26T06:17:25.199Z,78.40
2023-03-26T06:18:11.457Z,79.20
2023-03-26T06:18:58.777Z,79.07
2023-03-26T06:19:53.455Z,79.28
2023-03-26T06:20:44.559Z,79.25
2023-03-26T06:21:36.403Z,79.25
2023-03-26T06:22:15.787Z,79.41
2023-03-26T06:23:06.404Z,79.09
2023-03-26T06:24:10.618Z,79.82
2023-03-26T06:24:53.066Z,79.98
2023-03-26T06:25:54.585Z,79.64
2023-03-26T06:27:07.913Z,79.98
2023-03-26T06:28:09.681Z,80.05
2023-03-26T06:29:03.858Z,79.88
2023-03-26T06:29:49.966Z,80.15
2023-03-26T06:30:47.939Z,80.02
2023-03-26T06:31:43.512Z,79.54
2023-03-26T06:32:26.473Z,79.63
2023-03-26T06:33:04.221Z,79.65
2023-03-26T06:33:42.604Z,80.13
2023-03-26T06:34:21.984Z,80.14
2023-03-26T06:34:54.381Z,79.73
2023-03-26T06:35:26.838Z,79.90
2023-03-26T06:36:02.170Z,79.51
2023-03-26T06:36:34.561Z,79.49
2023-03-26T06:37:06.939Z,79.81
2023-03-26T06:37:42.578Z,79.67
2023-03-26T06:38:14.967Z,79.61
2023-03-26T06:38:50.260Z,79.83
2023-03-26T06:39:25.328Z,79.60
2023-03-26T06:40:36.207Z,79.58
2023-03-26T06:41:28.726Z,79.56
2023-03-26T06:43:06.330Z,79.62
2023-03-26T06:43:54.304Z,79.27
2023-03-26T06:44:44.988Z,79.37
2023-03-26T06:45:39.980Z,79.36
2023-03-26T06:46:32.905Z,79.58
2023-03-26T06:47:26.304Z,79.66
2023-03-26T06:47:58.631Z,79.32
2023-03-26T06:48:47.922Z,78.96
2023-03-26T06:49:53.027Z,78.85
2023-03-26T06:50:48.180Z,78.73
2023-03-26T06:51:36.024Z,78.72
2023-03-26T06:52:44.791Z,78.84
2023-03-26T06:53:40.112Z,78.69
2023-03-26T06:54:37.933Z,78.11
2023-03-26T06:55:31.504Z,78.38
2023-03-26T06:56:29.342Z,78.08
2023-03-26T06:57:18.162Z,78.24
2023-03-26T06:58:13.716Z,78.11
2023-03-26T06:58:46.042Z,77.94
2023-03-26T06:59:38.949Z,77.78
2023-03-26T07:00:29.841Z,77.49
2023-03-26T07:01:30.885Z,77.56
2023-03-26T07:02:21.534Z,76.98
2023-03-26T07:03:17.587Z,77.34
2023-03-26T07:04:08.237Z,77.32
2023-03-26T07:05:01.694Z,77.01
2023-03-26T07:06:05.945Z,76.85
2023-03-26T07:06:56.460Z,76.96
2023-03-26T07:07:50.282Z,77.01
2023-03-26T07:08:41.716Z,77.00
2023-03-26T07:09:45.866Z,76.89
2023-03-26T07:10:37.007Z,76.80
2023-03-26T07:11:30.610Z,76.48
2023-03-26T07:12:26.134Z,76.15
2023-03-26T07:13:23.841Z,76.24
2023-03-26T07:14:01.864Z,76.12
2023-03-26T07:15:10.596Z,75.46
2023-03-26T07:16:09.363Z,75.82
2023-03-26T07:17:19.524Z,75.75
2023-03-26T07:17:57.971Z,75.61
2023-03-26T07:18:37.277Z,75.28
2023-03-26T07:19:14.415Z,75.09
2023-03-26T07:19:47.602Z,75.24
2023-03-26T07:20:20.022Z,75.31
2023-03-26T07:20:55.758Z,75.03
2023-03-26T07:21:30.142Z,74.83
2023-03-26T07:22:03.174Z,74.81
2023-03-26T07:22:57.237Z,74.91
2023-03-26T07:23:42.404Z,75.00
2023-03-26T07:24:54.210Z,74.66
2023-03-26T07:25:46.127Z,74.77
2023-03-26T07:26:33.406Z,74.82
2023-03-26T07:27:46.645Z,74.71
2023-03-26T07:28:31.888Z,74.29
2023-03-26T07:29:28.162Z,74.47
2023-03-26T07:30:35.492Z,74.53
2023-03-26T07:31:30.746Z,74.58
2023-03-26T07:32:28.501Z,74.04
2023-03-26T07:33:24.656Z,74.00
2023-03-26T07:34:40.527Z,73.93
2023-03-26T07:35:30.050Z,74.16
2023-03-26T07:36:31.689Z,73.98
2023-03-26T07:37:37.514Z,73.77
2023-03-26T07:38:46.372Z,73.98
2023-03-26T07:39:59.573Z,73.65
2023-03-26T07:41:03.954Z,73.20
2023-03-26T07:41:44.535Z,73.25
2023-03-26T07:42:49.213Z,72.91
2023-03-26T07:43:51.794Z,72.64
2023-03-26T07:44:53.707Z,72.17
2023-03-26T07:45:47.103Z,72.39
2023-03-26T07:46:34.275Z,71.97
2023-03-26T07:47:29.902Z,71.68
2023-03-26T07:48:25.812Z,70.57
2023-03-26T07:49:13.249Z,70.80
2023-03-26T07:50:18.403Z,70.61
2023-03-26T07:51:21.398Z,70.69
2023-03-26T07:52:23.672Z,70.24
2023-03-26T07:53:25.438Z,69.78
2023-03-26T07:54:04.599Z,69.83
2023-03-26T07:54:56.538Z,69.70
2023-03-26T07:55:55.558Z,69.41
2023-03-26T07:56:55.030Z,69.27
2023-03-26T07:58:19.731Z,69.02
2023-03-26T07:59:25.961Z,68.21
2023-03-26T08:00:22.467Z,68.15
2023-03-26T08:01:10.550Z,68.13
2023-03-26T08:01:53.189Z,68.16
2023-03-26T08:02:53.429Z,68.36
2023-03-26T08:04:24.636Z,67.76
2023-03-26T08:05:29.528Z,68.64
2023-03-26T08:06:34.326Z,68.57
2023-03-26T08:07:37.791Z,67.47
2023-03-26T08:08:31.995Z,67.88
2023-03-26T08:09:41.292Z,68.53
2023-03-26T08:10:26.364Z,68.12
2023-03-26T08:11:20.981Z,68.19
2023-03-26T08:12:01.463Z,67.85
2023-03-26T08:12:54.211Z,67.88
2023-03-26T08:13:39.290Z,68.06
2023-03-26T08:14:26.477Z,67.96
2023-03-26T08:15:05.560Z,68.21
2023-03-26T08:15:46.138Z,67.83
2023-03-26T08:16:27.077Z,68.16
2023-03-26T08:17:05.198Z,67.94
2023-03-26T08:17:45.786Z,67.76
2023-03-26T08:18:31.646Z,67.43
2023-03-26T08:19:19.114Z,67.52
2023-03-26T08:20:02.604Z,67.23
2023-03-26T08:20:48.245Z,67.12
2023-03-26T08:21:25.380Z,67.44
2023-03-26T08:22:06.360Z,67.30
2023-03-26T08:22:41.517Z,67.18
2023-03-26T08:23:22.045Z,66.71
2023-03-26T08:24:07.315Z,66.80
2023-03-26T08:24:50.296Z,66.83
2023-03-26T08:25:28.340Z,66.45
2023-03-26T08:26:09.586Z,66.49
2023-03-26T08:26:52.262Z,66.36
2023-03-26T08:27:38.348Z,66.46
2023-03-26T08:28:27.261Z,66.27
2023-03-26T08:29:13.220Z,66.73
2023-03-26T08:29:54.566Z,66.08
2023-03-26T08:30:31.230Z,66.43
2023-03-26T08:31:04.233Z,66.43
2023-03-26T08:31:40.428Z,66.60
2023-03-26T08:32:19.178Z,66.41
2023-03-26T08:32:56.507Z,66.02
2023-03-26T08:33:31.001Z,66.22
2023-03-26T08:34:05.925Z,65.99
2023-03-26T08:34:39.216Z,65.61
2023-03-26T08:35:13.888Z,65.10
2023-03-26T08:35:52.101Z,64.86
2023-03-26T08:36:24.331Z,65.02
2023-03-26T08:36:56.729Z,64.78
2023-03-26T08:37:31.871Z,64.49
2023-03-26T08:38:04.206Z,64.97
2023-03-26T08:38:39.324Z,64.82
2023-03-26T08:39:11.912Z,64.50
2023-03-26T08:39:44.325Z,64.53
2023-03-26T08:40:32.829Z,64.11
2023-03-26T08:41:34.986Z,64.13
2023-03-26T08:42:54.434Z,63.94
2023-03-26T08:43:56.689Z,64.03
2023-03-26T08:45:01.324Z,64.29
2023-03-26T08:45:59.556Z,64.14
2023-03-26T08:47:05.807Z,63.83
2023-03-26T08:48:13.762Z,63.99
2023-03-26T08:49:24.891Z,63.73
2023-03-26T08:50:21.672Z,63.71
2023-03-26T08:51:35.528Z,63.33
2023-03-26T08:52:52.029Z,63.55
2023-03-26T08:53:53.659Z,62.53
2023-03-26T08:54:50.212Z,63.05
2023-03-26T08:55:48.863Z,62.83
2023-03-26T08:56:29.794Z,63.07
2023-03-26T08:57:27.055Z,63.25
2023-03-26T08:58:29.914Z,63.00
2023-03-26T08:59:48.638Z,63.40
2023-03-26T09:00:47.025Z,63.27
2023-03-26T09:02:01.097Z,63.16
2023-03-26T09:02:59.485Z,62.88
2023-03-26T09:04:02.551Z,62.52
2023-03-26T09:05:12.375Z,62.83
2023-03-26T09:06:33.972Z,62.51
2023-03-26T09:07:34.561Z,62.65